sensor_id;sensor_type;location;lat;lon;timestamp;pressure;altitude;pressure_sealevel;temperature;humidity
70411;BME280;57832;46.038;11.398;2023-02-01T00:00:05;97309.59;;;-3.59;100.00
70411;BME280;57832;46.038;11.398;2023-02-01T00:02:31;97318.44;;;-3.71;100.00
70411;BME280;57832;46.038;11.398;2023-02-01T00:04:56;97324.59;;;-3.64;100.00
70411;BME280;57832;46.038;11.398;2023-02-01T00:07:22;97327.44;;;-3.57;100.00
70411;BME280;57832;46.038;11.398;2023-02-01T00:09:47;97325.09;;;-3.50;100.00
70411;BME280;57832;46.038;11.398;2023-02-01T00:12:13;97323.75;;;-3.55;100.00
70411;BME280;57832;46.038;11.398;2023-02-01T00:14:38;97316.91;;;-3.64;100.00
70411;BME280;57832;46.038;11.398;2023-02-01T00:17:07;97310.41;;;-3.86;100.00
70411;BME280;57832;46.038;11.398;2023-02-01T00:19:33;97317.16;;;-3.85;100.00
70411;BME280;57832;46.038;11.398;2023-02-01T00:21:59;97307.38;;;-3.99;100.00
70411;BME280;57832;46.038;11.398;2023-02-01T00:24:25;97308.97;;;-3.98;100.00
70411;BME280;57832;46.038;11.398;2023-02-01T00:26:51;97305.13;;;-3.84;100.00
70411;BME280;57832;46.038;11.398;2023-02-01T00:29:18;97312.22;;;-3.68;100.00
70411;BME280;57832;46.038;11.398;2023-02-01T00:31:45;97317.09;;;-3.75;100.00
70411;BME280;57832;46.038;11.398;2023-02-01T00:34:15;97304.84;;;-3.81;100.00
70411;BME280;57832;46.038;11.398;2023-02-01T00:36:42;97304.91;;;-3.63;100.00
70411;BME280;57832;46.038;11.398;2023-02-01T00:39:08;97298.63;;;-3.51;100.00
70411;BME280;57832;46.038;11.398;2023-02-01T00:41:34;97293.50;;;-3.51;100.00
70411;BME280;57832;46.038;11.398;2023-02-01T00:43:59;97290.63;;;-3.66;100.00
70411;BME280;57832;46.038;11.398;2023-02-01T00:46:26;97289.81;;;-3.66;100.00
70411;BME280;57832;46.038;11.398;2023-02-01T00:48:52;97285.66;;;-3.77;100.00
70411;BME280;57832;46.038;11.398;2023-02-01T00:51:20;97293.66;;;-3.80;100.00
70411;BME280;57832;46.038;11.398;2023-02-01T00:53:46;97291.72;;;-3.68;100.00
70411;BME280;57832;46.038;11.398;2023-02-01T00:56:13;97282.41;;;-3.70;100.00
70411;BME280;57832;46.038;11.398;2023-02-01T00:58:38;97286.75;;;-3.80;100.00
70411;BME280;57832;46.038;11.398;2023-02-01T01:01:19;97284.69;;;-3.94;100.00
70411;BME280;57832;46.038;11.398;2023-02-01T01:03:50;97288.84;;;-3.93;100.00
70411;BME280;57832;46.038;11.398;2023-02-01T01:06:19;97291.06;;;-4.08;100.00
70411;BME280;57832;46.038;11.398;2023-02-01T01:08:45;97288.25;;;-4.15;100.00
70411;BME280;57832;46.038;11.398;2023-02-01T01:11:17;97289.75;;;-3.84;100.00
70411;BME280;57832;46.038;11.398;2023-02-01T01:13:45;97287.63;;;-4.27;100.00
70411;BME280;57832;46.038;11.398;2023-02-01T01:16:11;97304.06;;;-3.82;100.00
70411;BME280;57832;46.038;11.398;2023-02-01T01:18:37;97287.03;;;-4.11;100.00
70411;BME280;57832;46.038;11.398;2023-02-01T01:21:08;97293.81;;;-4.20;100.00
70411;BME280;57832;46.038;11.398;2023-02-01T01:23:34;97292.16;;;-4.11;100.00
70411;BME280;57832;46.038;11.398;2023-02-01T01:26:04;97295.50;;;-4.00;100.00
70411;BME280;57832;46.038;11.398;2023-02-01T01:28:29;97295.19;;;-3.88;100.00
70411;BME280;57832;46.038;11.398;2023-02-01T01:30:55;97291.31;;;-4.01;100.00
70411;BME280;57832;46.038;11.398;2023-02-01T01:33:20;97286.88;;;-4.47;100.00
70411;BME280;57832;46.038;11.398;2023-02-01T01:35:46;97283.72;;;-4.31;100.00
70411;BME280;57832;46.038;11.398;2023-02-01T01:38:11;97278.84;;;-4.24;100.00
70411;BME280;57832;46.038;11.398;2023-02-01T01:40:37;97289.81;;;-4.42;100.00
70411;BME280;57832;46.038;11.398;2023-02-01T01:43:03;97289.78;;;-4.32;100.00
70411;BME280;57832;46.038;11.398;2023-02-01T01:45:31;97284.59;;;-4.50;100.00
70411;BME280;57832;46.038;11.398;2023-02-01T01:48:05;97285.03;;;-4.64;100.00
70411;BME280;57832;46.038;11.398;2023-02-01T01:50:36;97290.63;;;-4.41;100.00
70411;BME280;57832;46.038;11.398;2023-02-01T01:53:06;97296.28;;;-4.38;100.00
70411;BME280;57832;46.038;11.398;2023-02-01T01:55:37;97287.94;;;-4.40;100.00
70411;BME280;57832;46.038;11.398;2023-02-01T01:58:06;97276.97;;;-4.22;100.00
70411;BME280;57832;46.038;11.398;2023-02-01T02:00:33;97278.78;;;-4.42;100.00
70411;BME280;57832;46.038;11.398;2023-02-01T02:03:05;97277.16;;;-4.43;100.00
70411;BME280;57832;46.038;11.398;2023-02-01T02:05:33;97279.13;;;-4.27;100.00
70411;BME280;57832;46.038;11.398;2023-02-01T02:07:59;97267.72;;;-4.43;100.00
70411;BME280;57832;46.038;11.398;2023-02-01T02:10:28;97275.31;;;-4.71;100.00
70411;BME280;57832;46.038;11.398;2023-02-01T02:13:13;97272.75;;;-4.71;100.00
70411;BME280;57832;46.038;11.398;2023-02-01T02:15:45;97271.13;;;-4.62;100.00
70411;BME280;57832;46.038;11.398;2023-02-01T02:18:27;97274.94;;;-4.76;100.00
70411;BME280;57832;46.038;11.398;2023-02-01T02:21:42;97266.94;;;-4.63;100.00
70411;BME280;57832;46.038;11.398;2023-02-01T02:26:58;97258.59;;;-4.55;100.00
70411;BME280;57832;46.038;11.398;2023-02-01T02:37:58;97250.03;;;-4.36;100.00
70411;BME280;57832;46.038;11.398;2023-02-01T02:43:22;97257.53;;;-4.72;100.00
70411;BME280;57832;46.038;11.398;2023-02-01T02:46:15;97244.97;;;-4.46;100.00
70411;BME280;57832;46.038;11.398;2023-02-01T02:49:12;97244.31;;;-4.58;100.00
70411;BME280;57832;46.038;11.398;2023-02-01T02:51:50;97252.34;;;-4.33;100.00
70411;BME280;57832;46.038;11.398;2023-02-01T02:54:47;97251.13;;;-4.39;100.00
70411;BME280;57832;46.038;11.398;2023-02-01T02:57:46;97257.25;;;-4.59;100.00
70411;BME280;57832;46.038;11.398;2023-02-01T03:00:32;97261.22;;;-4.94;100.00
70411;BME280;57832;46.038;11.398;2023-02-01T03:03:16;97263.63;;;-5.03;100.00
70411;BME280;57832;46.038;11.398;2023-02-01T03:06:00;97258.38;;;-4.72;100.00
70411;BME280;57832;46.038;11.398;2023-02-01T03:08:28;97256.09;;;-4.94;100.00
70411;BME280;57832;46.038;11.398;2023-02-01T03:11:04;97256.06;;;-4.75;100.00
70411;BME280;57832;46.038;11.398;2023-02-01T03:13:59;97256.88;;;-4.74;100.00
70411;BME280;57832;46.038;11.398;2023-02-01T03:16:29;97255.41;;;-4.87;100.00
70411;BME280;57832;46.038;11.398;2023-02-01T03:19:01;97268.06;;;-5.24;100.00
70411;BME280;57832;46.038;11.398;2023-02-01T03:21:45;97267.16;;;-5.04;100.00
70411;BME280;57832;46.038;11.398;2023-02-01T03:24:17;97255.03;;;-5.11;100.00
70411;BME280;57832;46.038;11.398;2023-02-01T03:26:48;97259.19;;;-4.81;100.00
70411;BME280;57832;46.038;11.398;2023-02-01T03:29:19;97258.63;;;-4.75;100.00
70411;BME280;57832;46.038;11.398;2023-02-01T03:31:46;97253.78;;;-4.97;100.00
70411;BME280;57832;46.038;11.398;2023-02-01T03:34:12;97258.69;;;-5.24;100.00
70411;BME280;57832;46.038;11.398;2023-02-01T03:36:58;97248.41;;;-5.04;100.00
70411;BME280;57832;46.038;11.398;2023-02-01T03:39:34;97247.88;;;-5.17;100.00
70411;BME280;57832;46.038;11.398;2023-02-01T03:42:09;97256.50;;;-5.38;100.00
70411;BME280;57832;46.038;11.398;2023-02-01T03:44:47;97253.56;;;-5.24;100.00
70411;BME280;57832;46.038;11.398;2023-02-01T03:47:18;97248.81;;;-5.18;100.00
70411;BME280;57832;46.038;11.398;2023-02-01T03:49:49;97247.75;;;-5.35;100.00
70411;BME280;57832;46.038;11.398;2023-02-01T03:52:38;97251.91;;;-5.44;100.00
70411;BME280;57832;46.038;11.398;2023-02-01T03:55:06;97247.22;;;-5.39;100.00
70411;BME280;57832;46.038;11.398;2023-02-01T03:57:37;97249.09;;;-5.51;100.00
70411;BME280;57832;46.038;11.398;2023-02-01T04:00:09;97257.56;;;-5.50;100.00
70411;BME280;57832;46.038;11.398;2023-02-01T04:02:39;97257.19;;;-5.16;100.00
70411;BME280;57832;46.038;11.398;2023-02-01T04:05:05;97255.97;;;-5.22;100.00
70411;BME280;57832;46.038;11.398;2023-02-01T04:07:31;97259.59;;;-5.34;100.00
70411;BME280;57832;46.038;11.398;2023-02-01T04:09:57;97253.69;;;-5.35;100.00
70411;BME280;57832;46.038;11.398;2023-02-01T04:12:22;97257.31;;;-5.18;100.00
70411;BME280;57832;46.038;11.398;2023-02-01T04:14:48;97259.59;;;-4.95;100.00
70411;BME280;57832;46.038;11.398;2023-02-01T04:17:13;97266.72;;;-5.48;100.00
70411;BME280;57832;46.038;11.398;2023-02-01T04:19:39;97265.06;;;-5.68;100.00
70411;BME280;57832;46.038;11.398;2023-02-01T04:22:04;97269.38;;;-5.59;100.00
70411;BME280;57832;46.038;11.398;2023-02-01T04:24:30;97259.81;;;-5.77;100.00
70411;BME280;57832;46.038;11.398;2023-02-01T04:26:55;97268.84;;;-5.63;100.00
70411;BME280;57832;46.038;11.398;2023-02-01T04:29:21;97268.88;;;-5.43;100.00
70411;BME280;57832;46.038;11.398;2023-02-01T04:31:46;97266.84;;;-5.49;100.00
70411;BME280;57832;46.038;11.398;2023-02-01T04:34:12;97269.13;;;-5.56;100.00
70411;BME280;57832;46.038;11.398;2023-02-01T04:36:37;97266.03;;;-5.50;100.00
70411;BME280;57832;46.038;11.398;2023-02-01T04:39:03;97264.03;;;-5.27;100.00
70411;BME280;57832;46.038;11.398;2023-02-01T04:41:29;97263.78;;;-5.14;100.00
70411;BME280;57832;46.038;11.398;2023-02-01T04:43:55;97250.19;;;-5.24;100.00
70411;BME280;57832;46.038;11.398;2023-02-01T04:46:20;97248.97;;;-5.20;100.00
70411;BME280;57832;46.038;11.398;2023-02-01T04:48:46;97253.00;;;-4.98;100.00
70411;BME280;57832;46.038;11.398;2023-02-01T04:51:12;97249.25;;;-5.23;100.00
70411;BME280;57832;46.038;11.398;2023-02-01T04:53:38;97255.16;;;-5.42;100.00
70411;BME280;57832;46.038;11.398;2023-02-01T04:56:04;97259.06;;;-5.28;100.00
70411;BME280;57832;46.038;11.398;2023-02-01T04:58:29;97251.25;;;-5.46;100.00
70411;BME280;57832;46.038;11.398;2023-02-01T05:00:55;97255.41;;;-5.45;100.00
70411;BME280;57832;46.038;11.398;2023-02-01T05:03:21;97247.09;;;-5.28;100.00
70411;BME280;57832;46.038;11.398;2023-02-01T05:05:49;97261.63;;;-5.28;100.00
70411;BME280;57832;46.038;11.398;2023-02-01T05:08:15;97261.31;;;-5.55;100.00
70411;BME280;57832;46.038;11.398;2023-02-01T05:10:41;97250.38;;;-5.86;100.00
70411;BME280;57832;46.038;11.398;2023-02-01T05:13:08;97267.84;;;-5.91;100.00
70411;BME280;57832;46.038;11.398;2023-02-01T05:15:54;97246.09;;;-5.76;100.00
70411;BME280;57832;46.038;11.398;2023-02-01T05:18:19;97257.13;;;-5.65;100.00
70411;BME280;57832;46.038;11.398;2023-02-01T05:20:45;97264.44;;;-5.51;100.00
70411;BME280;57832;46.038;11.398;2023-02-01T05:23:10;97246.66;;;-5.52;100.00
70411;BME280;57832;46.038;11.398;2023-02-01T05:25:36;97263.50;;;-5.50;100.00
70411;BME280;57832;46.038;11.398;2023-02-01T05:28:01;97247.34;;;-5.31;100.00
70411;BME280;57832;46.038;11.398;2023-02-01T05:30:27;97245.88;;;-5.53;100.00
70411;BME280;57832;46.038;11.398;2023-02-01T05:32:53;97264.28;;;-5.59;100.00
70411;BME280;57832;46.038;11.398;2023-02-01T05:35:19;97254.34;;;-5.43;100.00
70411;BME280;57832;46.038;11.398;2023-02-01T05:37:45;97249.25;;;-5.33;100.00
70411;BME280;57832;46.038;11.398;2023-02-01T05:40:11;97248.56;;;-5.45;100.00
70411;BME280;57832;46.038;11.398;2023-02-01T05:42:37;97246.69;;;-5.33;100.00
70411;BME280;57832;46.038;11.398;2023-02-01T05:45:03;97246.53;;;-5.41;100.00
70411;BME280;57832;46.038;11.398;2023-02-01T05:47:30;97261.03;;;-5.61;100.00
70411;BME280;57832;46.038;11.398;2023-02-01T05:49:56;97246.41;;;-5.40;100.00
70411;BME280;57832;46.038;11.398;2023-02-01T05:52:22;97252.31;;;-5.39;100.00
70411;BME280;57832;46.038;11.398;2023-02-01T05:54:47;97243.88;;;-5.40;100.00
70411;BME280;57832;46.038;11.398;2023-02-01T05:57:13;97248.00;;;-5.39;100.00
70411;BME280;57832;46.038;11.398;2023-02-01T05:59:39;97246.13;;;-5.37;100.00
70411;BME280;57832;46.038;11.398;2023-02-01T06:02:13;97251.91;;;-5.54;100.00
70411;BME280;57832;46.038;11.398;2023-02-01T06:04:38;97244.25;;;-5.25;100.00
70411;BME280;57832;46.038;11.398;2023-02-01T06:07:05;97239.28;;;-5.46;100.00
70411;BME280;57832;46.038;11.398;2023-02-01T06:09:33;97232.91;;;-5.61;100.00
70411;BME280;57832;46.038;11.398;2023-02-01T06:11:59;97234.25;;;-5.57;100.00
70411;BME280;57832;46.038;11.398;2023-02-01T06:14:26;97223.69;;;-5.33;100.00
70411;BME280;57832;46.038;11.398;2023-02-01T06:16:53;97236.44;;;-5.43;100.00
70411;BME280;57832;46.038;11.398;2023-02-01T06:19:19;97225.00;;;-5.39;100.00
70411;BME280;57832;46.038;11.398;2023-02-01T06:21:44;97227.84;;;-5.42;100.00
70411;BME280;57832;46.038;11.398;2023-02-01T06:24:11;97238.47;;;-5.46;100.00
70411;BME280;57832;46.038;11.398;2023-02-01T06:26:36;97224.69;;;-5.75;100.00
70411;BME280;57832;46.038;11.398;2023-02-01T06:29:02;97232.81;;;-5.50;100.00
70411;BME280;57832;46.038;11.398;2023-02-01T06:31:28;97235.75;;;-5.64;100.00
70411;BME280;57832;46.038;11.398;2023-02-01T06:33:53;97235.38;;;-5.50;100.00
70411;BME280;57832;46.038;11.398;2023-02-01T06:36:19;97235.88;;;-5.56;100.00
70411;BME280;57832;46.038;11.398;2023-02-01T06:38:47;97241.66;;;-5.64;100.00
70411;BME280;57832;46.038;11.398;2023-02-01T06:41:13;97228.34;;;-5.58;100.00
70411;BME280;57832;46.038;11.398;2023-02-01T06:43:39;97241.41;;;-5.41;100.00
70411;BME280;57832;46.038;11.398;2023-02-01T06:46:07;97246.00;;;-5.45;100.00
70411;BME280;57832;46.038;11.398;2023-02-01T06:48:33;97240.59;;;-5.61;100.00
70411;BME280;57832;46.038;11.398;2023-02-01T06:50:59;97247.50;;;-5.13;100.00
70411;BME280;57832;46.038;11.398;2023-02-01T06:53:25;97255.44;;;-5.26;100.00
70411;BME280;57832;46.038;11.398;2023-02-01T06:55:53;97249.66;;;-5.28;100.00
70411;BME280;57832;46.038;11.398;2023-02-01T06:58:18;97256.66;;;-5.30;100.00
70411;BME280;57832;46.038;11.398;2023-02-01T07:00:44;97257.31;;;-5.08;100.00
70411;BME280;57832;46.038;11.398;2023-02-01T07:03:09;97255.97;;;-4.93;100.00
70411;BME280;57832;46.038;11.398;2023-02-01T07:05:35;97257.03;;;-4.95;100.00
70411;BME280;57832;46.038;11.398;2023-02-01T07:08:00;97274.13;;;-5.25;100.00
70411;BME280;57832;46.038;11.398;2023-02-01T07:10:26;97267.53;;;-5.08;100.00
70411;BME280;57832;46.038;11.398;2023-02-01T07:12:52;97271.03;;;-5.09;100.00
70411;BME280;57832;46.038;11.398;2023-02-01T07:15:17;97279.41;;;-5.07;100.00
70411;BME280;57832;46.038;11.398;2023-02-01T07:17:43;97286.28;;;-5.08;100.00
70411;BME280;57832;46.038;11.398;2023-02-01T07:20:10;97286.38;;;-5.09;100.00
70411;BME280;57832;46.038;11.398;2023-02-01T07:22:35;97290.31;;;-4.95;100.00
70411;BME280;57832;46.038;11.398;2023-02-01T07:25:01;97298.78;;;-5.05;100.00
70411;BME280;57832;46.038;11.398;2023-02-01T07:27:27;97300.94;;;-4.90;100.00
70411;BME280;57832;46.038;11.398;2023-02-01T07:29:52;97305.66;;;-4.85;100.00
70411;BME280;57832;46.038;11.398;2023-02-01T07:32:18;97323.53;;;-5.15;100.00
70411;BME280;57832;46.038;11.398;2023-02-01T07:34:44;97316.69;;;-5.14;100.00
70411;BME280;57832;46.038;11.398;2023-02-01T07:37:10;97311.03;;;-5.08;100.00
70411;BME280;57832;46.038;11.398;2023-02-01T07:39:36;97301.91;;;-5.01;100.00
70411;BME280;57832;46.038;11.398;2023-02-01T07:42:01;97298.50;;;-5.11;100.00
70411;BME280;57832;46.038;11.398;2023-02-01T07:44:27;97293.94;;;-5.08;100.00
70411;BME280;57832;46.038;11.398;2023-02-01T07:46:52;97293.53;;;-5.03;100.00
70411;BME280;57832;46.038;11.398;2023-02-01T07:49:18;97289.50;;;-4.86;100.00
70411;BME280;57832;46.038;11.398;2023-02-01T07:51:43;97299.84;;;-4.58;100.00
70411;BME280;57832;46.038;11.398;2023-02-01T07:54:09;97286.34;;;-4.60;100.00
70411;BME280;57832;46.038;11.398;2023-02-01T07:56:35;97269.94;;;-4.67;100.00
70411;BME280;57832;46.038;11.398;2023-02-01T07:59:01;97275.16;;;-4.49;100.00
70411;BME280;57832;46.038;11.398;2023-02-01T08:01:28;97267.88;;;-4.54;100.00
70411;BME280;57832;46.038;11.398;2023-02-01T08:03:56;97273.28;;;-4.57;100.00
70411;BME280;57832;46.038;11.398;2023-02-01T08:06:24;97270.72;;;-4.57;100.00
70411;BME280;57832;46.038;11.398;2023-02-01T08:08:51;97261.84;;;-4.53;100.00
70411;BME280;57832;46.038;11.398;2023-02-01T08:11:17;97259.47;;;-4.37;100.00
70411;BME280;57832;46.038;11.398;2023-02-01T08:13:43;97271.66;;;-4.11;100.00
70411;BME280;57832;46.038;11.398;2023-02-01T08:16:11;97267.13;;;-4.17;100.00
70411;BME280;57832;46.038;11.398;2023-02-01T08:18:38;97272.13;;;-3.97;100.00
70411;BME280;57832;46.038;11.398;2023-02-01T08:21:06;97269.53;;;-4.15;100.00
70411;BME280;57832;46.038;11.398;2023-02-01T08:23:34;97271.03;;;-3.85;100.00
70411;BME280;57832;46.038;11.398;2023-02-01T08:28:32;97268.34;;;-3.93;100.00
70411;BME280;57832;46.038;11.398;2023-02-01T08:30:58;97264.81;;;-4.20;100.00
70411;BME280;57832;46.038;11.398;2023-02-01T08:33:23;97257.97;;;-4.29;100.00
70411;BME280;57832;46.038;11.398;2023-02-01T08:35:49;97261.25;;;-4.09;100.00
70411;BME280;57832;46.038;11.398;2023-02-01T08:38:14;97270.72;;;-4.10;100.00
70411;BME280;57832;46.038;11.398;2023-02-01T08:40:40;97260.13;;;-4.25;100.00
70411;BME280;57832;46.038;11.398;2023-02-01T08:43:07;97254.22;;;-4.35;100.00
70411;BME280;57832;46.038;11.398;2023-02-01T08:45:32;97246.19;;;-4.50;100.00
70411;BME280;57832;46.038;11.398;2023-02-01T08:48:00;97241.56;;;-4.37;100.00
70411;BME280;57832;46.038;11.398;2023-02-01T08:50:26;97248.94;;;-3.96;100.00
70411;BME280;57832;46.038;11.398;2023-02-01T08:52:52;97242.34;;;-3.98;100.00
70411;BME280;57832;46.038;11.398;2023-02-01T08:55:18;97246.00;;;-4.01;100.00
70411;BME280;57832;46.038;11.398;2023-02-01T08:57:44;97235.94;;;-3.84;100.00
70411;BME280;57832;46.038;11.398;2023-02-01T09:00:16;97239.88;;;-3.90;100.00
70411;BME280;57832;46.038;11.398;2023-02-01T09:02:42;97234.53;;;-3.79;100.00
70411;BME280;57832;46.038;11.398;2023-02-01T09:05:08;97235.22;;;-4.05;100.00
70411;BME280;57832;46.038;11.398;2023-02-01T09:07:35;97232.56;;;-4.13;100.00
70411;BME280;57832;46.038;11.398;2023-02-01T09:10:01;97223.22;;;-4.04;100.00
70411;BME280;57832;46.038;11.398;2023-02-01T09:12:28;97230.19;;;-4.24;100.00
70411;BME280;57832;46.038;11.398;2023-02-01T09:14:56;97233.59;;;-4.06;100.00
70411;BME280;57832;46.038;11.398;2023-02-01T09:17:22;97228.19;;;-4.03;100.00
70411;BME280;57832;46.038;11.398;2023-02-01T09:19:48;97232.34;;;-3.74;100.00
70411;BME280;57832;46.038;11.398;2023-02-01T09:22:14;97237.56;;;-3.65;100.00
70411;BME280;57832;46.038;11.398;2023-02-01T09:24:41;97228.06;;;-4.01;100.00
70411;BME280;57832;46.038;11.398;2023-02-01T09:27:06;97224.53;;;-4.00;100.00
70411;BME280;57832;46.038;11.398;2023-02-01T09:29:32;97228.91;;;-4.10;100.00
70411;BME280;57832;46.038;11.398;2023-02-01T09:31:57;97230.34;;;-3.80;100.00
70411;BME280;57832;46.038;11.398;2023-02-01T09:34:23;97230.94;;;-3.86;100.00
70411;BME280;57832;46.038;11.398;2023-02-01T09:36:49;97242.00;;;-3.86;100.00
70411;BME280;57832;46.038;11.398;2023-02-01T09:39:14;97235.13;;;-3.85;100.00
70411;BME280;57832;46.038;11.398;2023-02-01T09:41:57;97242.19;;;-3.51;100.00
70411;BME280;57832;46.038;11.398;2023-02-01T09:47:00;97244.94;;;-3.34;100.00
70411;BME280;57832;46.038;11.398;2023-02-01T09:49:31;97237.88;;;-3.32;100.00
70411;BME280;57832;46.038;11.398;2023-02-01T09:51:59;97246.03;;;-3.01;100.00
70411;BME280;57832;46.038;11.398;2023-02-01T09:54:33;97240.25;;;-3.21;100.00
70411;BME280;57832;46.038;11.398;2023-02-01T09:57:13;97242.41;;;-3.08;100.00
70411;BME280;57832;46.038;11.398;2023-02-01T09:59:43;97232.50;;;-2.85;100.00
70411;BME280;57832;46.038;11.398;2023-02-01T10:02:23;97225.38;;;-2.73;100.00
70411;BME280;57832;46.038;11.398;2023-02-01T10:04:49;97234.91;;;-1.29;100.00
70411;BME280;57832;46.038;11.398;2023-02-01T10:07:42;97224.00;;;0.23;100.00
70411;BME280;57832;46.038;11.398;2023-02-01T10:10:40;97217.75;;;2.44;100.00
70411;BME280;57832;46.038;11.398;2023-02-01T10:15:55;97208.13;;;4.70;100.00
70411;BME280;57832;46.038;11.398;2023-02-01T10:21:17;97206.75;;;5.08;100.00
70411;BME280;57832;46.038;11.398;2023-02-01T10:26:45;97185.84;;;8.34;100.00
70411;BME280;57832;46.038;11.398;2023-02-01T10:29:20;97189.47;;;13.84;71.06
70411;BME280;57832;46.038;11.398;2023-02-01T10:31:47;97188.28;;;16.93;40.89
70411;BME280;57832;46.038;11.398;2023-02-01T10:34:24;97183.00;;;15.93;38.08
70411;BME280;57832;46.038;11.398;2023-02-01T10:37:01;97186.34;;;11.41;51.59
70411;BME280;57832;46.038;11.398;2023-02-01T10:39:27;97177.88;;;9.73;81.02
70411;BME280;57832;46.038;11.398;2023-02-01T10:41:54;97166.31;;;9.21;85.21
70411;BME280;57832;46.038;11.398;2023-02-01T10:44:28;97169.84;;;8.30;89.87
70411;BME280;57832;46.038;11.398;2023-02-01T10:46:55;97163.69;;;10.38;84.34
70411;BME280;57832;46.038;11.398;2023-02-01T10:49:26;97157.53;;;11.29;71.24
70411;BME280;57832;46.038;11.398;2023-02-01T10:54:37;97157.28;;;12.64;56.66
70411;BME280;57832;46.038;11.398;2023-02-01T10:57:12;97148.72;;;13.16;50.74
70411;BME280;57832;46.038;11.398;2023-02-01T10:59:44;97143.88;;;19.20;36.08
70411;BME280;57832;46.038;11.398;2023-02-01T11:02:20;97126.34;;;17.18;33.25
70411;BME280;57832;46.038;11.398;2023-02-01T11:05:08;97124.09;;;12.95;42.33
70411;BME280;57832;46.038;11.398;2023-02-01T11:07:36;97132.38;;;15.49;37.65
70411;BME280;57832;46.038;11.398;2023-02-01T11:10:03;97136.00;;;10.59;49.28
70411;BME280;57832;46.038;11.398;2023-02-01T11:12:31;97130.44;;;9.57;71.02
70411;BME280;57832;46.038;11.398;2023-02-01T11:15:20;97125.88;;;9.41;73.44
70411;BME280;57832;46.038;11.398;2023-02-01T11:17:48;97134.31;;;10.24;71.42
70411;BME280;57832;46.038;11.398;2023-02-01T11:22:57;97107.72;;;11.34;56.35
70411;BME280;57832;46.038;11.398;2023-02-01T11:25:24;97101.31;;;11.08;60.71
70411;BME280;57832;46.038;11.398;2023-02-01T11:27:53;97097.28;;;11.40;57.85
70411;BME280;57832;46.038;11.398;2023-02-01T11:30:38;97092.50;;;11.14;65.69
70411;BME280;57832;46.038;11.398;2023-02-01T11:33:09;97065.00;;;12.11;57.42
70411;BME280;57832;46.038;11.398;2023-02-01T11:35:38;97078.94;;;13.67;47.51
70411;BME280;57832;46.038;11.398;2023-02-01T11:38:33;97082.22;;;18.38;36.04
70411;BME280;57832;46.038;11.398;2023-02-01T11:41:23;97069.38;;;20.03;31.18
70411;BME280;57832;46.038;11.398;2023-02-01T11:43:57;97072.50;;;16.98;33.56
70411;BME280;57832;46.038;11.398;2023-02-01T11:46:28;97094.19;;;14.85;39.16
70411;BME280;57832;46.038;11.398;2023-02-01T11:48:55;97071.47;;;13.43;41.53
70411;BME280;57832;46.038;11.398;2023-02-01T11:52:07;97085.59;;;12.84;43.00
70411;BME280;57832;46.038;11.398;2023-02-01T12:03:04;97055.47;;;15.41;38.66
70411;BME280;57832;46.038;11.398;2023-02-01T12:08:46;97052.53;;;17.74;33.96
70411;BME280;57832;46.038;11.398;2023-02-01T12:14:10;97039.41;;;18.72;31.12
70411;BME280;57832;46.038;11.398;2023-02-01T12:22:12;97007.41;;;15.28;39.43
70411;BME280;57832;46.038;11.398;2023-02-01T12:43:57;97000.94;;;17.85;31.81
70411;BME280;57832;46.038;11.398;2023-02-01T12:50:03;96966.63;;;12.07;39.45
70411;BME280;57832;46.038;11.398;2023-02-01T12:52:07;96958.63;;;12.29;42.60
70411;BME280;57832;46.038;11.398;2023-02-01T12:54:48;96961.13;;;12.46;41.00
70411;BME280;57832;46.038;11.398;2023-02-01T12:57:27;96963.91;;;12.29;41.41
70411;BME280;57832;46.038;11.398;2023-02-01T13:00:13;96951.03;;;12.32;40.52
70411;BME280;57832;46.038;11.398;2023-02-01T13:03:00;96943.59;;;12.19;41.55
70411;BME280;57832;46.038;11.398;2023-02-01T13:05:58;96934.81;;;12.46;38.78
70411;BME280;57832;46.038;11.398;2023-02-01T13:08:31;96934.63;;;13.16;38.69
70411;BME280;57832;46.038;11.398;2023-02-01T13:11:04;96933.72;;;14.35;35.74
70411;BME280;57832;46.038;11.398;2023-02-01T13:13:45;96903.84;;;14.66;33.68
70411;BME280;57832;46.038;11.398;2023-02-01T13:16:24;96886.38;;;12.95;35.65
70411;BME280;57832;46.038;11.398;2023-02-01T13:19:00;96893.88;;;12.65;36.11
70411;BME280;57832;46.038;11.398;2023-02-01T13:21:32;96891.47;;;13.32;35.36
70411;BME280;57832;46.038;11.398;2023-02-01T13:24:00;96900.66;;;13.14;35.49
70411;BME280;57832;46.038;11.398;2023-02-01T13:26:26;96894.94;;;13.48;36.63
70411;BME280;57832;46.038;11.398;2023-02-01T13:29:12;96886.88;;;12.97;39.81
70411;BME280;57832;46.038;11.398;2023-02-01T13:37:18;96899.38;;;11.78;43.61
70411;BME280;57832;46.038;11.398;2023-02-01T13:42:54;96872.25;;;11.18;47.70
70411;BME280;57832;46.038;11.398;2023-02-01T13:45:23;96869.31;;;11.09;44.38
70411;BME280;57832;46.038;11.398;2023-02-01T13:47:53;96870.22;;;10.98;46.83
70411;BME280;57832;46.038;11.398;2023-02-01T13:50:30;96885.59;;;10.67;46.63
70411;BME280;57832;46.038;11.398;2023-02-01T13:53:02;96877.13;;;10.82;49.08
70411;BME280;57832;46.038;11.398;2023-02-01T13:55:36;96884.56;;;10.46;69.16
70411;BME280;57832;46.038;11.398;2023-02-01T13:58:15;96889.72;;;10.41;82.07
70411;BME280;57832;46.038;11.398;2023-02-01T14:00:43;96884.47;;;10.41;78.01
70411;BME280;57832;46.038;11.398;2023-02-01T14:03:22;96884.41;;;10.35;67.56
70411;BME280;57832;46.038;11.398;2023-02-01T14:06:17;96896.44;;;9.97;70.29
70411;BME280;57832;46.038;11.398;2023-02-01T14:08:44;96899.06;;;9.97;70.14
70411;BME280;57832;46.038;11.398;2023-02-01T14:11:33;96898.88;;;9.87;64.18
70411;BME280;57832;46.038;11.398;2023-02-01T14:19:26;96898.25;;;9.80;57.42
70411;BME280;57832;46.038;11.398;2023-02-01T14:21:57;96889.50;;;9.91;54.02
70411;BME280;57832;46.038;11.398;2023-02-01T14:24:31;96896.50;;;9.85;55.64
70411;BME280;57832;46.038;11.398;2023-02-01T14:26:59;96895.47;;;9.69;57.55